createdAt,value
2018-11-14T00:00:38.554Z,7.87
2018-11-14T00:03:06.181Z,8.80
2018-11-14T00:05:33.764Z,9.43
2018-11-14T00:08:01.343Z,7.43
2018-11-14T00:10:28.968Z,7.27
2018-11-14T00:12:56.542Z,6.70
2018-11-14T00:15:24.130Z,7.20
2018-11-14T00:17:51.733Z,7.13
2018-11-14T00:20:19.319Z,7.97
2018-11-14T00:22:46.946Z,7.30
2018-11-14T00:25:14.521Z,8.73
2018-11-14T00:27:42.909Z,7.93
2018-11-14T00:30:10.477Z,7.87
2018-11-14T00:32:38.058Z,8.20
2018-11-14T00:35:05.666Z,8.97
2018-11-14T00:37:33.280Z,10.10
2018-11-14T00:40:00.862Z,13.40
2018-11-14T00:42:28.473Z,11.80
2018-11-14T00:44:56.818Z,12.20
2018-11-14T00:47:24.482Z,12.60
2018-11-14T00:49:52.069Z,11.13
2018-11-14T00:52:20.458Z,10.50
2018-11-14T00:54:48.030Z,10.27
2018-11-14T00:57:16.377Z,9.53
2018-11-14T00:59:44.862Z,12.60
2018-11-14T01:02:12.451Z,11.47
2018-11-14T01:04:40.802Z,11.13
2018-11-14T01:07:08.408Z,10.00
2018-11-14T01:09:35.997Z,13.83
2018-11-14T01:12:03.654Z,12.63
2018-11-14T01:14:31.243Z,10.97
2018-11-14T01:16:58.824Z,9.63
2018-11-14T01:19:26.443Z,12.43
2018-11-14T01:21:54.030Z,12.40
2018-11-14T01:24:21.611Z,10.50
2018-11-14T01:26:49.220Z,9.20
2018-11-14T01:29:16.808Z,11.97
2018-11-14T01:31:44.449Z,11.40
2018-11-14T01:34:12.320Z,9.77
2018-11-14T01:36:39.608Z,9.77
2018-11-14T01:39:07.215Z,10.37
2018-11-14T01:41:34.803Z,14.60
2018-11-14T01:44:02.412Z,10.37
2018-11-14T01:46:30.750Z,9.20
2018-11-14T01:48:58.406Z,9.97
2018-11-14T01:51:25.988Z,9.57
2018-11-14T01:53:53.636Z,13.87
2018-11-14T01:56:21.956Z,10.60
2018-11-14T01:58:50.309Z,13.60
2018-11-14T02:01:17.935Z,12.63
2018-11-14T02:03:45.528Z,11.57
2018-11-14T02:06:13.113Z,10.77
2018-11-14T02:08:40.759Z,14.73
2018-11-14T02:11:08.309Z,10.13
2018-11-14T02:13:35.932Z,10.30
2018-11-14T02:16:03.528Z,11.07
2018-11-14T02:18:31.111Z,10.87
2018-11-14T02:20:58.713Z,9.77
2018-11-14T02:23:26.304Z,15.20
2018-11-14T02:25:54.157Z,13.00
2018-11-14T02:28:21.753Z,14.68
2018-11-14T02:30:49.327Z,11.87
2018-11-14T02:33:16.933Z,12.93
2018-11-14T02:35:44.513Z,13.67
2018-11-14T02:38:12.168Z,13.20
2018-11-14T02:40:39.754Z,16.20
2018-11-14T02:43:07.340Z,12.67
2018-11-14T02:45:34.949Z,10.63
2018-11-14T02:48:02.528Z,10.63
2018-11-14T02:50:30.149Z,11.87
2018-11-14T02:52:58.500Z,13.70
2018-11-14T02:55:26.090Z,13.13
2018-11-14T02:57:54.484Z,10.97
2018-11-14T03:00:22.075Z,9.67
2018-11-14T03:02:49.705Z,10.77
2018-11-14T03:05:18.056Z,13.47
2018-11-14T03:07:45.640Z,13.57
2018-11-14T03:10:14.014Z,11.83
2018-11-14T03:12:41.610Z,12.77
2018-11-14T03:15:09.223Z,12.87
2018-11-14T03:17:36.801Z,10.20
2018-11-14T03:20:05.149Z,8.50
2018-11-14T03:22:32.782Z,10.80
2018-11-14T03:25:00.370Z,12.83
2018-11-14T03:27:27.959Z,14.97
2018-11-14T03:29:56.331Z,15.23
2018-11-14T03:32:23.915Z,14.30
2018-11-14T03:34:52.308Z,12.40
2018-11-14T03:37:19.905Z,14.27
2018-11-14T03:39:47.497Z,12.57
2018-11-14T03:42:15.110Z,11.70
2018-11-14T03:44:42.691Z,12.73
2018-11-14T03:47:10.662Z,12.37
2018-11-14T03:49:38.240Z,13.70
2018-11-14T03:52:05.834Z,13.60
2018-11-14T03:54:33.440Z,13.53
2018-11-14T03:57:01.023Z,10.33
2018-11-14T03:59:28.646Z,11.13
2018-11-14T04:01:56.231Z,10.90
2018-11-14T04:04:23.814Z,9.63
2018-11-14T04:06:51.422Z,13.70
2018-11-14T04:09:19.023Z,12.53
2018-11-14T04:11:47.099Z,12.80
2018-11-14T04:14:14.704Z,10.60
2018-11-14T04:16:43.051Z,13.97
2018-11-14T04:19:10.661Z,10.77
2018-11-14T04:21:38.766Z,10.37
2018-11-14T04:24:06.381Z,12.10
2018-11-14T04:26:34.731Z,10.03
2018-11-14T04:29:02.384Z,9.13
2018-11-14T04:31:29.963Z,9.40
2018-11-14T04:33:57.903Z,6.93
2018-11-14T04:36:25.517Z,9.30
2018-11-14T04:38:53.864Z,9.83
2018-11-14T04:41:21.481Z,8.23
2018-11-14T04:43:49.059Z,7.87
2018-11-14T04:46:16.640Z,7.17
2018-11-14T04:48:44.247Z,8.70
2018-11-14T04:51:12.595Z,11.07
2018-11-14T04:53:40.234Z,9.57
2018-11-14T04:56:07.807Z,7.37
2018-11-14T04:58:35.384Z,8.50
2018-11-14T05:01:03.003Z,7.40
2018-11-14T05:03:30.588Z,11.50
2018-11-14T05:05:58.549Z,8.83
2018-11-14T05:08:26.127Z,9.20
2018-11-14T05:10:53.702Z,9.30
2018-11-14T05:13:21.314Z,8.97
2018-11-14T05:15:48.888Z,9.53
2018-11-14T05:18:16.512Z,10.23
2018-11-14T05:20:44.105Z,9.17
2018-11-14T05:23:11.686Z,12.40
2018-11-14T05:25:39.307Z,11.03
2018-11-14T05:28:06.897Z,11.00
2018-11-14T05:30:34.534Z,12.37
2018-11-14T05:33:02.120Z,10.43
2018-11-14T05:35:30.006Z,9.70
2018-11-14T05:37:57.988Z,9.77
2018-11-14T05:40:25.564Z,8.83
2018-11-14T05:42:53.145Z,8.07
2018-11-14T05:45:21.589Z,9.63
2018-11-14T05:47:49.903Z,11.07
2018-11-14T05:50:17.450Z,7.27
2018-11-14T05:52:45.509Z,8.60
2018-11-14T05:55:13.106Z,7.77
2018-11-14T05:57:41.453Z,9.13
2018-11-14T06:00:09.082Z,9.10
2018-11-14T06:02:36.662Z,7.43
2018-11-14T06:05:04.239Z,8.93
2018-11-14T06:07:31.905Z,8.33
2018-11-14T06:09:59.473Z,8.70
2018-11-14T06:12:27.051Z,7.10
2018-11-14T06:14:54.655Z,9.67
2018-11-14T06:17:22.232Z,7.60
2018-11-14T06:19:49.862Z,9.73
2018-11-14T06:22:17.443Z,10.40
2018-11-14T06:24:45.035Z,9.73
2018-11-14T06:27:12.666Z,8.60
2018-11-14T06:29:40.302Z,11.13
2018-11-14T06:32:07.847Z,11.07
2018-11-14T06:34:36.218Z,11.57
2018-11-14T06:37:04.571Z,10.07
2018-11-14T06:39:32.757Z,9.33
2018-11-14T06:42:00.352Z,10.73
2018-11-14T06:44:28.695Z,9.27
2018-11-14T06:46:56.779Z,8.83
2018-11-14T06:49:24.356Z,7.23
2018-11-14T06:51:51.935Z,6.53
2018-11-14T06:54:19.860Z,6.70
2018-11-14T06:56:47.435Z,8.67
2018-11-14T06:59:15.045Z,8.13
2018-11-14T07:01:42.648Z,7.57
2018-11-14T07:04:10.221Z,6.40
2018-11-14T07:06:37.832Z,6.23
2018-11-14T07:09:06.803Z,7.33
2018-11-14T07:11:33.807Z,5.60
2018-11-14T07:14:01.386Z,5.60
2018-11-14T07:16:29.326Z,6.10
2018-11-14T07:18:56.914Z,7.68
2018-11-14T07:21:24.618Z,6.00
2018-11-14T07:23:52.267Z,5.33
2018-11-14T07:26:19.779Z,5.83
2018-11-14T07:28:47.445Z,5.77
2018-11-14T07:31:15.018Z,6.23
2018-11-14T07:33:42.607Z,8.13
2018-11-14T07:36:10.987Z,6.50
2018-11-14T07:38:39.331Z,6.30
2018-11-14T07:41:06.925Z,5.83
2018-11-14T07:43:35.847Z,8.00
2018-11-14T07:46:03.389Z,6.07
2018-11-14T07:48:31.737Z,7.97
2018-11-14T07:50:59.804Z,6.00
2018-11-14T07:53:27.382Z,9.45
2018-11-14T07:55:54.963Z,9.40
2018-11-14T07:58:23.336Z,6.67
2018-11-14T08:00:51.683Z,5.90
2018-11-14T08:03:19.312Z,6.67
2018-11-14T08:05:46.890Z,6.53
2018-11-14T08:08:14.493Z,6.97
2018-11-14T08:10:42.566Z,6.43
2018-11-14T08:13:10.930Z,6.77
2018-11-14T08:15:38.542Z,8.23
2018-11-14T08:18:06.158Z,6.87
2018-11-14T08:20:33.728Z,6.00
2018-11-14T08:23:01.885Z,6.73
2018-11-14T08:25:29.454Z,6.87
2018-11-14T08:27:57.026Z,9.83
2018-11-14T08:30:25.974Z,7.40
2018-11-14T08:32:53.482Z,7.80
2018-11-14T08:35:21.822Z,7.97
2018-11-14T08:37:49.423Z,7.30
2018-11-14T08:40:17.757Z,7.37
2018-11-14T08:42:45.383Z,7.33
2018-11-14T08:45:13.721Z,7.23
2018-11-14T08:47:41.316Z,7.27
2018-11-14T08:50:09.708Z,7.50
2018-11-14T08:52:38.035Z,7.83
2018-11-14T08:55:05.625Z,7.67
2018-11-14T08:57:33.266Z,11.00
2018-11-14T09:00:00.842Z,10.80
2018-11-14T09:02:28.417Z,11.10
2018-11-14T09:04:56.785Z,8.57
2018-11-14T09:07:24.354Z,8.03
2018-11-14T09:09:52.006Z,8.03
2018-11-14T09:12:19.592Z,8.10
2018-11-14T09:14:47.152Z,7.37
2018-11-14T09:17:15.513Z,8.27
2018-11-14T09:19:43.079Z,10.57
2018-11-14T09:22:10.695Z,8.20
2018-11-14T09:24:38.294Z,7.77
2018-11-14T09:27:05.845Z,8.03
2018-11-14T09:29:34.236Z,8.20
2018-11-14T09:32:01.808Z,9.90
2018-11-14T09:34:30.159Z,7.77
2018-11-14T09:36:57.772Z,7.57
2018-11-14T09:39:25.344Z,7.23
2018-11-14T09:41:52.912Z,7.97
2018-11-14T09:44:20.548Z,7.73
2018-11-14T09:46:48.122Z,7.50
2018-11-14T09:49:15.755Z,7.63
2018-11-14T09:51:43.604Z,8.23
2018-11-14T09:54:11.179Z,8.23
2018-11-14T09:56:38.761Z,8.20
2018-11-14T09:59:07.122Z,7.83
2018-11-14T10:01:34.696Z,9.47
2018-11-14T10:04:03.055Z,7.63
2018-11-14T10:06:30.622Z,7.07
2018-11-14T10:08:59.295Z,7.87
2018-11-14T10:11:26.868Z,7.97
2018-11-14T10:13:54.478Z,7.97
2018-11-14T10:16:22.908Z,10.83
2018-11-14T10:18:50.475Z,7.70
2018-11-14T10:21:18.091Z,8.67
2018-11-14T10:23:45.656Z,8.43
2018-11-14T10:26:13.223Z,7.63
2018-11-14T10:28:40.800Z,7.33
2018-11-14T10:31:09.150Z,7.07
2018-11-14T10:33:36.988Z,8.70
2018-11-14T10:36:04.859Z,8.97
2018-11-14T10:38:33.223Z,9.10
2018-11-14T10:41:00.792Z,8.17
2018-11-14T10:43:29.182Z,7.57
2018-11-14T10:45:57.519Z,9.07
2018-11-14T10:48:25.090Z,8.43
2018-11-14T10:50:53.032Z,8.73
2018-11-14T10:53:20.544Z,8.60
2018-11-14T10:55:48.882Z,8.50
2018-11-14T10:58:16.511Z,8.83
2018-11-14T11:00:44.139Z,8.63
2018-11-14T11:03:11.652Z,8.37
2018-11-14T11:05:39.271Z,8.40
2018-11-14T11:08:22.579Z,9.03
2018-11-14T11:10:50.888Z,9.70
2018-11-14T11:13:19.730Z,10.50
2018-11-14T11:15:47.299Z,9.37
2018-11-14T11:18:14.937Z,8.80
2018-11-14T11:20:43.235Z,9.00
2018-11-14T11:23:10.861Z,8.43
2018-11-14T11:25:38.435Z,9.97
2018-11-14T11:28:06.017Z,10.63
2018-11-14T11:30:34.423Z,9.93
2018-11-14T11:33:01.985Z,9.87
2018-11-14T11:35:29.550Z,9.97
2018-11-14T11:37:57.181Z,15.25
2018-11-14T11:40:24.747Z,11.70
2018-11-14T11:42:52.330Z,11.60
2018-11-14T11:45:19.968Z,10.77
2018-11-14T11:47:47.551Z,13.07
2018-11-14T11:50:15.129Z,15.10
2018-11-14T11:52:43.505Z,14.27
2018-11-14T11:55:11.748Z,11.07
2018-11-14T11:57:39.471Z,10.63
2018-11-14T12:00:07.059Z,9.80
2018-11-14T12:02:34.557Z,11.00
2018-11-14T12:05:02.184Z,9.93
2018-11-14T12:07:29.760Z,10.30
2018-11-14T12:09:57.342Z,10.20
2018-11-14T12:12:26.440Z,13.73
2018-11-14T12:14:54.018Z,10.67
2018-11-14T12:17:21.584Z,13.65
2018-11-14T12:19:49.984Z,12.33
2018-11-14T12:22:17.564Z,11.00
2018-11-14T12:24:45.143Z,19.23
2018-11-14T12:27:13.163Z,10.87
2018-11-14T12:29:40.693Z,10.97
2018-11-14T12:32:08.268Z,10.87
2018-11-14T12:34:36.716Z,11.67
2018-11-14T12:37:04.215Z,11.23
2018-11-14T12:39:31.797Z,14.25
2018-11-14T12:42:00.038Z,12.90
2018-11-14T12:44:27.884Z,11.37
2018-11-14T12:46:55.471Z,14.50
2018-11-14T12:49:23.951Z,11.03
2018-11-14T12:51:51.774Z,14.18
2018-11-14T12:54:19.346Z,14.47
2018-11-14T12:56:47.545Z,13.10
2018-11-14T12:59:15.160Z,10.90
2018-11-14T13:01:42.704Z,10.77
2018-11-14T13:04:11.872Z,10.27
2018-11-14T13:06:39.447Z,12.47
2018-11-14T13:09:07.026Z,10.87
2018-11-14T13:11:35.785Z,10.80
2018-11-14T13:14:03.361Z,10.63
2018-11-14T13:16:30.944Z,10.93
2018-11-14T13:18:59.362Z,10.10
2018-11-14T13:21:27.340Z,10.60
2018-11-14T13:23:55.152Z,9.83
2018-11-14T13:26:24.739Z,10.87
2018-11-14T13:28:52.362Z,11.07
2018-11-14T13:31:19.891Z,10.83
2018-11-14T13:33:48.299Z,10.20
2018-11-14T13:36:16.700Z,10.87
2018-11-14T13:38:44.275Z,11.23
2018-11-14T13:41:12.662Z,11.63
2018-11-14T13:43:40.248Z,11.37
2018-11-14T13:46:08.601Z,11.97
2018-11-14T13:48:36.269Z,10.50
2018-11-14T13:51:04.004Z,10.50
2018-11-14T13:53:31.419Z,11.50
2018-11-14T13:55:59.017Z,12.07
2018-11-14T13:58:26.588Z,11.43
2018-11-14T14:00:54.293Z,11.13
2018-11-14T14:03:21.871Z,10.23
2018-11-14T14:05:50.223Z,11.57
2018-11-14T14:08:18.233Z,11.17
2018-11-14T14:10:45.812Z,17.20
2018-11-14T14:13:13.389Z,15.00
2018-11-14T14:15:41.014Z,10.87
2018-11-14T14:18:09.358Z,10.80
2018-11-14T14:20:36.939Z,10.47
2018-11-14T14:23:06.089Z,10.63
2018-11-14T14:25:33.664Z,10.10
2018-11-14T14:28:03.564Z,9.93
2018-11-14T14:30:31.221Z,12.10
2018-11-14T14:32:58.804Z,12.45
2018-11-14T14:35:26.382Z,10.70
2018-11-14T14:37:54.029Z,10.00
2018-11-14T14:40:21.596Z,9.73
2018-11-14T14:42:49.183Z,8.73
2018-11-14T14:45:17.526Z,8.60
2018-11-14T14:47:45.102Z,8.33
2018-11-14T14:50:12.678Z,8.73
2018-11-14T14:52:40.347Z,8.80
2018-11-14T14:55:07.914Z,9.73
2018-11-14T14:57:35.492Z,9.53
2018-11-14T15:00:03.125Z,8.53
2018-11-14T15:02:30.701Z,9.37
2018-11-14T15:04:59.051Z,9.17
2018-11-14T15:07:26.704Z,9.10
2018-11-14T15:09:54.278Z,9.70
2018-11-14T15:12:21.874Z,10.03
2018-11-14T15:14:50.272Z,12.30
2018-11-14T15:17:17.858Z,11.17
2018-11-14T15:19:45.442Z,10.00
2018-11-14T15:22:13.409Z,9.97
2018-11-14T15:24:40.991Z,10.63
2018-11-14T15:27:08.622Z,10.87
2018-11-14T15:29:36.986Z,10.43
2018-11-14T15:32:04.560Z,10.67
2018-11-14T15:34:32.143Z,10.10
2018-11-14T15:36:59.763Z,9.80
2018-11-14T15:39:27.379Z,12.57
2018-11-14T15:41:54.934Z,11.37
2018-11-14T15:44:24.990Z,10.20
2018-11-14T15:46:52.616Z,10.03
2018-11-14T15:49:20.201Z,10.10
2018-11-14T15:51:48.511Z,10.03
2018-11-14T15:54:16.009Z,11.00
2018-11-14T15:56:43.603Z,10.10
2018-11-14T15:59:12.068Z,10.27
2018-11-14T16:01:39.641Z,10.60
2018-11-14T16:04:07.983Z,10.53
2018-11-14T16:06:36.383Z,10.37
2018-11-14T16:09:03.948Z,10.30
2018-11-14T16:11:31.534Z,13.60
2018-11-14T16:13:59.471Z,11.70
2018-11-14T16:16:27.046Z,11.03
2018-11-14T16:18:54.618Z,13.23
2018-11-14T16:21:22.985Z,11.50
2018-11-14T16:23:50.568Z,11.30
2018-11-14T16:26:19.027Z,12.47
2018-11-14T16:28:46.633Z,10.67
2018-11-14T16:31:14.198Z,11.13
2018-11-14T16:33:42.205Z,12.47
2018-11-14T16:36:09.783Z,11.70
2018-11-14T16:38:37.373Z,11.53
2018-11-14T16:41:05.507Z,12.33
2018-11-14T16:43:33.124Z,14.33
2018-11-14T16:46:00.741Z,12.03
2018-11-14T16:48:28.802Z,11.17
2018-11-14T16:50:56.381Z,10.33
2018-11-14T16:53:23.953Z,11.03
2018-11-14T16:55:52.449Z,10.10
2018-11-14T16:58:19.986Z,10.77
2018-11-14T17:00:47.566Z,10.37
2018-11-14T17:03:15.960Z,9.83
2018-11-14T17:05:43.549Z,9.43
2018-11-14T17:08:11.129Z,9.97
2018-11-14T17:10:38.748Z,9.97
2018-11-14T17:13:06.327Z,9.50
2018-11-14T17:15:34.316Z,8.47
2018-11-14T17:18:01.929Z,10.03
2018-11-14T17:20:29.502Z,9.33
2018-11-14T17:22:57.137Z,9.47
2018-11-14T17:25:25.475Z,9.17
2018-11-14T17:27:53.056Z,10.40
2018-11-14T17:30:20.701Z,10.23
2018-11-14T17:32:48.276Z,9.97
2018-11-14T17:35:15.859Z,9.90
2018-11-14T17:37:44.422Z,14.48
2018-11-14T17:40:11.994Z,11.00
2018-11-14T17:42:39.612Z,13.85
2018-11-14T17:45:08.457Z,14.87
2018-11-14T17:47:36.035Z,10.37
2018-11-14T17:50:03.629Z,9.83
2018-11-14T17:52:31.264Z,10.90
2018-11-14T17:54:58.886Z,10.20
2018-11-14T17:57:26.841Z,10.33
2018-11-14T17:59:54.454Z,10.37
2018-11-14T18:02:22.812Z,11.70
2018-11-14T18:04:50.673Z,10.50
2018-11-14T18:07:18.347Z,11.60
2018-11-14T18:09:45.829Z,11.17
2018-11-14T18:12:14.192Z,10.27
2018-11-14T18:14:41.835Z,10.03
2018-11-14T18:17:09.742Z,11.33
2018-11-14T18:19:38.087Z,12.00
2018-11-14T18:22:05.908Z,12.37
2018-11-14T18:24:34.008Z,11.67
2018-11-14T18:27:01.585Z,15.37
2018-11-14T18:29:29.161Z,17.00
2018-11-14T18:31:56.783Z,18.37
2018-11-14T18:34:24.362Z,19.83
2018-11-14T18:36:51.927Z,15.03
2018-11-14T18:39:19.611Z,12.97
2018-11-14T18:41:47.150Z,13.60
2018-11-14T18:44:14.684Z,15.73
2018-11-14T18:46:42.292Z,12.77
2018-11-14T18:49:09.886Z,14.57
2018-11-14T18:51:37.510Z,10.47
2018-11-14T18:54:05.131Z,11.50
2018-11-14T18:56:32.717Z,11.23
2018-11-14T18:59:00.336Z,15.43
2018-11-14T19:01:27.914Z,21.10
2018-11-14T19:03:55.496Z,17.53
2018-11-14T19:06:23.107Z,15.20
2018-11-14T19:08:51.033Z,16.07
2018-11-14T19:11:18.648Z,15.07
2018-11-14T19:13:46.247Z,16.27
2018-11-14T19:16:13.820Z,28.17
2018-11-14T19:18:41.591Z,18.50
2018-11-14T19:21:09.775Z,13.13
2018-11-14T19:23:37.743Z,22.10
2018-11-14T19:26:05.323Z,17.83
2018-11-14T19:28:33.259Z,17.00
2018-11-14T19:31:00.889Z,18.67
2018-11-14T19:33:28.475Z,14.07
2018-11-14T19:35:56.055Z,13.23
2018-11-14T19:38:23.685Z,11.93
2018-11-14T19:40:51.301Z,12.97
2018-11-14T19:43:18.843Z,12.93
2018-11-14T19:45:46.462Z,15.87
2018-11-14T19:48:14.053Z,14.50
2018-11-14T19:50:41.626Z,13.63
2018-11-14T19:53:09.814Z,15.30
2018-11-14T19:55:37.488Z,12.43
2018-11-14T19:58:04.974Z,21.03
2018-11-14T20:00:32.612Z,21.03
2018-11-14T20:03:00.193Z,14.30
2018-11-14T20:05:28.535Z,14.73
2018-11-14T20:07:56.165Z,15.20
2018-11-14T20:10:23.839Z,16.23
2018-11-14T20:12:51.335Z,15.60
2018-11-14T20:15:19.583Z,17.50
2018-11-14T20:17:47.160Z,13.37
2018-11-14T20:20:14.742Z,17.67
2018-11-14T20:22:42.387Z,19.20
2018-11-14T20:25:09.967Z,15.10
2018-11-14T20:27:37.551Z,13.30
2018-11-14T20:30:05.208Z,15.33
2018-11-14T20:32:33.589Z,15.03
2018-11-14T20:35:01.148Z,15.27
2018-11-14T20:37:29.578Z,15.30
2018-11-14T20:39:57.157Z,11.53
2018-11-14T20:42:24.735Z,13.07
2018-11-14T20:44:52.386Z,12.77
2018-11-14T20:47:20.204Z,13.37
2018-11-14T20:49:47.781Z,17.85
2018-11-14T20:52:16.222Z,15.50
2018-11-14T20:54:44.564Z,11.17
2018-11-14T20:57:12.145Z,10.53
2018-11-14T20:59:39.780Z,12.87
2018-11-14T21:02:07.357Z,14.83
2018-11-14T21:04:35.202Z,12.30
2018-11-14T21:07:02.829Z,15.07
2018-11-14T21:09:30.423Z,14.37
2018-11-14T21:11:58.001Z,12.87
2018-11-14T21:14:25.623Z,14.23
2018-11-14T21:16:53.203Z,18.57
2018-11-14T21:19:20.789Z,10.47
2018-11-14T21:21:48.455Z,13.13
2018-11-14T21:24:16.008Z,16.90
2018-11-14T21:26:43.585Z,15.00
2018-11-14T21:29:11.756Z,12.10
2018-11-14T21:31:39.336Z,14.27
2018-11-14T21:34:06.922Z,13.17
2018-11-14T21:36:34.582Z,16.13
2018-11-14T21:39:02.166Z,12.97
2018-11-14T21:41:29.753Z,13.60
2018-11-14T21:43:57.382Z,12.00
2018-11-14T21:46:24.973Z,13.93
2018-11-14T21:48:52.548Z,11.80
2018-11-14T21:51:20.152Z,11.33
2018-11-14T21:53:48.494Z,14.67
2018-11-14T21:56:16.123Z,13.67
2018-11-14T21:58:43.706Z,13.97
2018-11-14T22:01:11.287Z,12.43
2018-11-14T22:03:38.884Z,10.30
2018-11-14T22:06:06.458Z,13.07
2018-11-14T22:08:34.081Z,14.80
2018-11-14T22:11:01.652Z,11.83
2018-11-14T22:13:29.247Z,13.97
2018-11-14T22:15:56.920Z,17.60
2018-11-14T22:18:24.494Z,19.07
2018-11-14T22:20:52.464Z,11.70
2018-11-14T22:23:21.148Z,11.70
2018-11-14T22:25:48.720Z,9.40
2018-11-14T22:28:16.299Z,9.30
2018-11-14T22:30:43.959Z,8.83
2018-11-14T22:33:11.547Z,13.27
2018-11-14T22:35:39.134Z,14.07
2018-11-14T22:38:06.762Z,10.97
2018-11-14T22:40:34.333Z,10.10
2018-11-14T22:43:02.675Z,10.33
2018-11-14T22:45:30.301Z,9.63
2018-11-14T22:47:57.876Z,9.93
2018-11-14T22:50:25.469Z,11.03
2018-11-14T22:52:53.265Z,9.13
2018-11-14T22:55:21.613Z,9.37
2018-11-14T22:57:49.598Z,9.93
2018-11-14T23:00:17.175Z,12.48
2018-11-14T23:02:45.517Z,10.60
2018-11-14T23:05:13.111Z,9.70
2018-11-14T23:07:41.455Z,12.73
2018-11-14T23:10:09.657Z,10.77
2018-11-14T23:12:37.245Z,10.50
2018-11-14T23:15:04.782Z,9.60
2018-11-14T23:17:32.426Z,9.60
2018-11-14T23:20:00.036Z,10.00
2018-11-14T23:22:27.580Z,13.40
2018-11-14T23:24:55.188Z,12.07
2018-11-14T23:27:23.061Z,9.97
2018-11-14T23:29:50.670Z,11.43
2018-11-14T23:32:18.248Z,10.73
2018-11-14T23:34:45.822Z,10.60
2018-11-14T23:37:13.422Z,10.90
2018-11-14T23:39:40.992Z,10.70
2018-11-14T23:42:08.613Z,14.33
2018-11-14T23:44:36.187Z,14.17
2018-11-14T23:47:03.758Z,10.53
2018-11-14T23:49:31.368Z,10.63
2018-11-14T23:51:59.707Z,9.03
2018-11-14T23:54:27.335Z,10.73
2018-11-14T23:56:54.913Z,9.07
2018-11-14T23:59:22.486Z,9.03
